首页
METAR-TAF:

METAR-TAF

机场 :

雅库茨克, 俄罗斯

纬度: 62-01N, 经度: 129-43E, 海拔: 103米

当前天气观测

该预报发布于31分钟前的01:30 UTC
静风
温度 -25°C
湿度 76%
气压 1031 hPa
能見度: 5000
散云层高于1500英尺
轻雾

METAR: UEEE 230130Z 00000MPS 5000 BR SCT015 M25/M28 Q1031 R23L/490150 NOSIG RMK QFE764

时间: 11:01 (02:01 UTC)

预报

该预报发布于3小时和1分钟前的23:00 UTC
预报有效从23日的 00点(UTC)到 24日的 06点(UTC)
风速2节,风向多变
能见度10公里或以上
散云层高于1500英尺
阴天层高于7000英尺
小雪
短暂存在
从 23日的 00点(UTC)到 23日的 06点(UTC)
能見度: 2100
小雪

TAF: UEEE 222300Z 2300/2406 VRB01MPS 9999 -SN SCT015 OVC070 TEMPO 2300/2306 2100 -SN

超过4000个机场的气象观测和天气预报(METAR&TAF报告)。

可查询的气象台以黄色和红色小点在地图上表示。

将鼠标移到小点上方,可查看气象台名称。

然后点击查看天气观测和预报。

如需切换地图:点击带黑十字的绿色按钮放大地图;点击带横线的绿色按钮缩小地图;或者点击绿色箭头查看邻近地区的地图。


METAR-TAF: